sensor_id;sensor_type;location;lat;lon;timestamp;P1;durP1;ratioP1;P2;durP2;ratioP2
211;SDS011;16228;48.800;9.002;2023-05-29T00:00:50;12.23;;;11.13;;
211;SDS011;16228;48.800;9.002;2023-05-29T00:03:17;13.83;;;11.03;;
211;SDS011;16228;48.800;9.002;2023-05-29T00:05:44;10.17;;;9.17;;
211;SDS011;16228;48.800;9.002;2023-05-29T00:08:13;12.90;;;11.50;;
211;SDS011;16228;48.800;9.002;2023-05-29T00:10:40;11.30;;;10.10;;
211;SDS011;16228;48.800;9.002;2023-05-29T00:13:07;11.10;;;9.00;;
211;SDS011;16228;48.800;9.002;2023-05-29T00:15:35;12.73;;;11.53;;
211;SDS011;16228;48.800;9.002;2023-05-29T00:18:02;12.40;;;10.87;;
211;SDS011;16228;48.800;9.002;2023-05-29T00:20:29;12.17;;;10.90;;
211;SDS011;16228;48.800;9.002;2023-05-29T00:22:59;12.73;;;10.90;;
211;SDS011;16228;48.800;9.002;2023-05-29T00:25:31;10.37;;;9.30;;
211;SDS011;16228;48.800;9.002;2023-05-29T00:27:58;13.00;;;11.80;;
211;SDS011;16228;48.800;9.002;2023-05-29T00:30:25;11.77;;;10.67;;
211;SDS011;16228;48.800;9.002;2023-05-29T00:32:52;13.37;;;12.10;;
211;SDS011;16228;48.800;9.002;2023-05-29T00:35:19;13.70;;;12.37;;
211;SDS011;16228;48.800;9.002;2023-05-29T00:37:47;12.40;;;11.10;;
211;SDS011;16228;48.800;9.002;2023-05-29T00:40:14;13.03;;;11.83;;
211;SDS011;16228;48.800;9.002;2023-05-29T00:42:42;13.57;;;12.37;;
211;SDS011;16228;48.800;9.002;2023-05-29T00:45:10;10.53;;;9.53;;
211;SDS011;16228;48.800;9.002;2023-05-29T00:47:38;12.87;;;11.67;;
211;SDS011;16228;48.800;9.002;2023-05-29T00:50:07;14.00;;;12.83;;
211;SDS011;16228;48.800;9.002;2023-05-29T00:52:36;13.10;;;11.80;;
211;SDS011;16228;48.800;9.002;2023-05-29T00:55:06;14.20;;;12.90;;
211;SDS011;16228;48.800;9.002;2023-05-29T00:57:34;13.07;;;11.20;;
211;SDS011;16228;48.800;9.002;2023-05-29T01:00:05;13.27;;;10.63;;
211;SDS011;16228;48.800;9.002;2023-05-29T01:02:35;11.97;;;10.77;;
211;SDS011;16228;48.800;9.002;2023-05-29T01:05:04;13.53;;;11.87;;
211;SDS011;16228;48.800;9.002;2023-05-29T01:07:31;12.00;;;10.47;;
211;SDS011;16228;48.800;9.002;2023-05-29T01:09:59;12.70;;;11.40;;
211;SDS011;16228;48.800;9.002;2023-05-29T01:12:30;11.37;;;10.37;;
211;SDS011;16228;48.800;9.002;2023-05-29T01:15:11;12.63;;;11.33;;
211;SDS011;16228;48.800;9.002;2023-05-29T01:17:47;13.97;;;11.47;;
211;SDS011;16228;48.800;9.002;2023-05-29T01:20:24;13.03;;;11.63;;
211;SDS011;16228;48.800;9.002;2023-05-29T01:23:08;11.77;;;10.53;;
211;SDS011;16228;48.800;9.002;2023-05-29T01:26:11;12.43;;;11.07;;
211;SDS011;16228;48.800;9.002;2023-05-29T01:28:49;11.33;;;9.57;;
211;SDS011;16228;48.800;9.002;2023-05-29T01:31:21;13.27;;;12.03;;
211;SDS011;16228;48.800;9.002;2023-05-29T01:33:53;12.20;;;11.00;;
211;SDS011;16228;48.800;9.002;2023-05-29T01:36:21;13.20;;;11.87;;
211;SDS011;16228;48.800;9.002;2023-05-29T01:38:48;11.50;;;10.50;;
211;SDS011;16228;48.800;9.002;2023-05-29T01:41:16;13.10;;;10.60;;
211;SDS011;16228;48.800;9.002;2023-05-29T01:43:45;13.43;;;12.00;;
211;SDS011;16228;48.800;9.002;2023-05-29T01:46:14;11.97;;;10.87;;
211;SDS011;16228;48.800;9.002;2023-05-29T01:48:42;12.73;;;11.03;;
211;SDS011;16228;48.800;9.002;2023-05-29T01:51:09;11.83;;;10.83;;
211;SDS011;16228;48.800;9.002;2023-05-29T01:53:37;12.17;;;10.87;;
211;SDS011;16228;48.800;9.002;2023-05-29T01:56:05;9.90;;;9.00;;
211;SDS011;16228;48.800;9.002;2023-05-29T01:58:33;11.33;;;10.10;;
211;SDS011;16228;48.800;9.002;2023-05-29T02:01:01;11.83;;;10.73;;
211;SDS011;16228;48.800;9.002;2023-05-29T02:03:30;12.40;;;10.90;;
211;SDS011;16228;48.800;9.002;2023-05-29T02:05:57;14.60;;;11.30;;
211;SDS011;16228;48.800;9.002;2023-05-29T02:08:25;13.83;;;11.13;;
211;SDS011;16228;48.800;9.002;2023-05-29T02:10:53;12.43;;;11.20;;
211;SDS011;16228;48.800;9.002;2023-05-29T02:13:21;11.40;;;10.27;;
211;SDS011;16228;48.800;9.002;2023-05-29T02:15:48;12.70;;;11.50;;
211;SDS011;16228;48.800;9.002;2023-05-29T02:18:15;10.97;;;9.73;;
211;SDS011;16228;48.800;9.002;2023-05-29T02:20:45;11.93;;;10.00;;
211;SDS011;16228;48.800;9.002;2023-05-29T02:23:13;12.87;;;10.63;;
211;SDS011;16228;48.800;9.002;2023-05-29T02:25:40;11.53;;;10.30;;
211;SDS011;16228;48.800;9.002;2023-05-29T02:28:07;12.87;;;10.03;;
211;SDS011;16228;48.800;9.002;2023-05-29T02:30:35;10.67;;;9.77;;
211;SDS011;16228;48.800;9.002;2023-05-29T02:33:02;10.70;;;9.57;;
211;SDS011;16228;48.800;9.002;2023-05-29T02:35:29;9.87;;;9.03;;
211;SDS011;16228;48.800;9.002;2023-05-29T02:37:58;10.73;;;9.63;;
211;SDS011;16228;48.800;9.002;2023-05-29T02:40:25;10.37;;;9.13;;
211;SDS011;16228;48.800;9.002;2023-05-29T02:42:52;9.80;;;8.93;;
211;SDS011;16228;48.800;9.002;2023-05-29T02:45:20;10.87;;;9.80;;
211;SDS011;16228;48.800;9.002;2023-05-29T02:47:47;10.73;;;9.73;;
211;SDS011;16228;48.800;9.002;2023-05-29T02:50:14;11.40;;;9.50;;
211;SDS011;16228;48.800;9.002;2023-05-29T02:52:41;12.23;;;9.30;;
211;SDS011;16228;48.800;9.002;2023-05-29T02:55:10;10.20;;;9.20;;
211;SDS011;16228;48.800;9.002;2023-05-29T02:57:37;10.63;;;9.63;;
211;SDS011;16228;48.800;9.002;2023-05-29T03:00:05;12.37;;;10.03;;
211;SDS011;16228;48.800;9.002;2023-05-29T03:02:34;10.50;;;9.50;;
211;SDS011;16228;48.800;9.002;2023-05-29T03:05:01;12.07;;;10.77;;
211;SDS011;16228;48.800;9.002;2023-05-29T03:07:29;11.63;;;9.50;;
211;SDS011;16228;48.800;9.002;2023-05-29T03:09:56;9.10;;;8.20;;
211;SDS011;16228;48.800;9.002;2023-05-29T03:12:25;9.67;;;8.77;;
211;SDS011;16228;48.800;9.002;2023-05-29T03:14:52;9.63;;;8.57;;
211;SDS011;16228;48.800;9.002;2023-05-29T03:17:21;10.03;;;9.03;;
211;SDS011;16228;48.800;9.002;2023-05-29T03:19:48;10.57;;;9.57;;
211;SDS011;16228;48.800;9.002;2023-05-29T03:22:16;11.67;;;9.17;;
211;SDS011;16228;48.800;9.002;2023-05-29T03:24:43;10.40;;;9.30;;
211;SDS011;16228;48.800;9.002;2023-05-29T03:27:10;11.70;;;9.67;;
211;SDS011;16228;48.800;9.002;2023-05-29T03:29:39;10.87;;;9.80;;
211;SDS011;16228;48.800;9.002;2023-05-29T03:32:06;12.77;;;11.57;;
211;SDS011;16228;48.800;9.002;2023-05-29T03:34:33;11.10;;;9.90;;
211;SDS011;16228;48.800;9.002;2023-05-29T03:37:00;10.03;;;7.90;;
211;SDS011;16228;48.800;9.002;2023-05-29T03:39:28;9.67;;;8.70;;
211;SDS011;16228;48.800;9.002;2023-05-29T03:41:55;11.17;;;9.80;;
211;SDS011;16228;48.800;9.002;2023-05-29T03:44:22;10.77;;;9.60;;
211;SDS011;16228;48.800;9.002;2023-05-29T03:46:51;10.90;;;9.43;;
211;SDS011;16228;48.800;9.002;2023-05-29T03:49:18;10.60;;;9.50;;
211;SDS011;16228;48.800;9.002;2023-05-29T03:51:45;11.60;;;9.33;;
211;SDS011;16228;48.800;9.002;2023-05-29T03:54:12;9.33;;;8.27;;
211;SDS011;16228;48.800;9.002;2023-05-29T03:56:39;11.00;;;9.73;;
211;SDS011;16228;48.800;9.002;2023-05-29T03:59:07;9.10;;;8.30;;
211;SDS011;16228;48.800;9.002;2023-05-29T04:01:34;9.70;;;7.93;;
211;SDS011;16228;48.800;9.002;2023-05-29T04:04:03;10.70;;;9.30;;
211;SDS011;16228;48.800;9.002;2023-05-29T04:06:30;11.30;;;10.30;;
211;SDS011;16228;48.800;9.002;2023-05-29T04:08:58;9.23;;;8.30;;
211;SDS011;16228;48.800;9.002;2023-05-29T04:11:25;11.53;;;9.00;;
211;SDS011;16228;48.800;9.002;2023-05-29T04:13:52;9.50;;;8.00;;
211;SDS011;16228;48.800;9.002;2023-05-29T04:16:19;9.43;;;8.37;;
211;SDS011;16228;48.800;9.002;2023-05-29T04:18:46;9.93;;;8.93;;
211;SDS011;16228;48.800;9.002;2023-05-29T04:21:15;14.27;;;9.80;;
211;SDS011;16228;48.800;9.002;2023-05-29T04:23:42;10.20;;;9.20;;
211;SDS011;16228;48.800;9.002;2023-05-29T04:26:09;11.83;;;8.30;;
211;SDS011;16228;48.800;9.002;2023-05-29T04:28:38;10.37;;;9.13;;
211;SDS011;16228;48.800;9.002;2023-05-29T04:31:05;9.80;;;8.83;;
211;SDS011;16228;48.800;9.002;2023-05-29T04:33:32;10.07;;;9.07;;
211;SDS011;16228;48.800;9.002;2023-05-29T04:36:02;9.50;;;8.60;;
211;SDS011;16228;48.800;9.002;2023-05-29T04:38:31;9.83;;;8.90;;
211;SDS011;16228;48.800;9.002;2023-05-29T04:40:58;9.23;;;8.40;;
211;SDS011;16228;48.800;9.002;2023-05-29T04:43:25;11.40;;;8.97;;
211;SDS011;16228;48.800;9.002;2023-05-29T04:45:53;10.80;;;9.70;;
211;SDS011;16228;48.800;9.002;2023-05-29T04:48:20;11.10;;;9.47;;
211;SDS011;16228;48.800;9.002;2023-05-29T04:50:47;10.40;;;8.97;;
211;SDS011;16228;48.800;9.002;2023-05-29T04:53:14;9.27;;;8.20;;
211;SDS011;16228;48.800;9.002;2023-05-29T04:55:43;9.07;;;8.17;;
211;SDS011;16228;48.800;9.002;2023-05-29T04:58:10;9.67;;;7.27;;
211;SDS011;16228;48.800;9.002;2023-05-29T05:00:38;8.10;;;6.67;;
211;SDS011;16228;48.800;9.002;2023-05-29T05:03:05;8.60;;;7.77;;
211;SDS011;16228;48.800;9.002;2023-05-29T05:05:32;7.63;;;6.83;;
211;SDS011;16228;48.800;9.002;2023-05-29T05:07:59;9.67;;;7.10;;
211;SDS011;16228;48.800;9.002;2023-05-29T05:10:26;7.80;;;6.73;;
211;SDS011;16228;48.800;9.002;2023-05-29T05:12:55;6.83;;;5.30;;
211;SDS011;16228;48.800;9.002;2023-05-29T05:15:22;7.97;;;6.17;;
211;SDS011;16228;48.800;9.002;2023-05-29T05:17:49;6.70;;;5.77;;
211;SDS011;16228;48.800;9.002;2023-05-29T05:20:17;7.23;;;6.37;;
211;SDS011;16228;48.800;9.002;2023-05-29T05:22:44;8.57;;;6.77;;
211;SDS011;16228;48.800;9.002;2023-05-29T05:25:11;7.67;;;6.37;;
211;SDS011;16228;48.800;9.002;2023-05-29T05:27:38;6.20;;;5.60;;
211;SDS011;16228;48.800;9.002;2023-05-29T05:30:07;7.77;;;5.43;;
211;SDS011;16228;48.800;9.002;2023-05-29T05:32:35;7.57;;;5.20;;
211;SDS011;16228;48.800;9.002;2023-05-29T05:35:02;7.77;;;5.03;;
211;SDS011;16228;48.800;9.002;2023-05-29T05:37:30;6.63;;;5.07;;
211;SDS011;16228;48.800;9.002;2023-05-29T05:39:57;6.27;;;4.70;;
211;SDS011;16228;48.800;9.002;2023-05-29T05:42:25;6.07;;;5.33;;
211;SDS011;16228;48.800;9.002;2023-05-29T05:44:52;6.77;;;4.97;;
211;SDS011;16228;48.800;9.002;2023-05-29T05:47:21;5.83;;;4.90;;
211;SDS011;16228;48.800;9.002;2023-05-29T05:49:48;6.43;;;4.40;;
211;SDS011;16228;48.800;9.002;2023-05-29T05:52:16;8.17;;;5.33;;
211;SDS011;16228;48.800;9.002;2023-05-29T05:54:43;7.03;;;5.10;;
211;SDS011;16228;48.800;9.002;2023-05-29T05:57:11;8.50;;;5.60;;
211;SDS011;16228;48.800;9.002;2023-05-29T05:59:38;7.37;;;4.90;;
211;SDS011;16228;48.800;9.002;2023-05-29T06:02:05;8.57;;;5.13;;
211;SDS011;16228;48.800;9.002;2023-05-29T06:04:34;7.10;;;4.50;;
211;SDS011;16228;48.800;9.002;2023-05-29T06:07:02;7.27;;;4.87;;
211;SDS011;16228;48.800;9.002;2023-05-29T06:09:29;6.70;;;5.30;;
211;SDS011;16228;48.800;9.002;2023-05-29T06:11:56;5.00;;;4.40;;
211;SDS011;16228;48.800;9.002;2023-05-29T06:14:24;7.83;;;4.47;;
211;SDS011;16228;48.800;9.002;2023-05-29T06:16:51;5.03;;;4.00;;
211;SDS011;16228;48.800;9.002;2023-05-29T06:19:18;6.03;;;5.00;;
211;SDS011;16228;48.800;9.002;2023-05-29T06:21:47;7.50;;;4.33;;
211;SDS011;16228;48.800;9.002;2023-05-29T06:24:14;6.00;;;4.53;;
211;SDS011;16228;48.800;9.002;2023-05-29T06:26:41;6.30;;;4.07;;
211;SDS011;16228;48.800;9.002;2023-05-29T06:29:08;5.70;;;4.07;;
211;SDS011;16228;48.800;9.002;2023-05-29T06:31:36;5.43;;;3.53;;
211;SDS011;16228;48.800;9.002;2023-05-29T06:34:03;6.87;;;3.60;;
211;SDS011;16228;48.800;9.002;2023-05-29T06:36:31;5.23;;;3.73;;
211;SDS011;16228;48.800;9.002;2023-05-29T06:38:59;6.63;;;3.90;;
211;SDS011;16228;48.800;9.002;2023-05-29T06:41:26;6.33;;;3.40;;
211;SDS011;16228;48.800;9.002;2023-05-29T06:43:53;5.40;;;3.93;;
211;SDS011;16228;48.800;9.002;2023-05-29T06:46:21;5.43;;;3.80;;
211;SDS011;16228;48.800;9.002;2023-05-29T06:48:48;5.43;;;3.77;;
211;SDS011;16228;48.800;9.002;2023-05-29T06:51:15;4.67;;;3.40;;
211;SDS011;16228;48.800;9.002;2023-05-29T06:53:43;4.27;;;3.13;;
211;SDS011;16228;48.800;9.002;2023-05-29T06:56:12;4.53;;;3.53;;
211;SDS011;16228;48.800;9.002;2023-05-29T06:58:39;5.13;;;3.33;;
211;SDS011;16228;48.800;9.002;2023-05-29T07:01:06;6.63;;;3.43;;
211;SDS011;16228;48.800;9.002;2023-05-29T07:03:33;5.63;;;3.33;;
211;SDS011;16228;48.800;9.002;2023-05-29T07:06:01;4.63;;;3.20;;
211;SDS011;16228;48.800;9.002;2023-05-29T07:08:29;5.20;;;3.37;;
211;SDS011;16228;48.800;9.002;2023-05-29T07:10:56;5.50;;;3.63;;
211;SDS011;16228;48.800;9.002;2023-05-29T07:13:24;4.67;;;3.20;;
211;SDS011;16228;48.800;9.002;2023-05-29T07:15:52;4.20;;;3.40;;
211;SDS011;16228;48.800;9.002;2023-05-29T07:18:19;4.97;;;3.10;;
211;SDS011;16228;48.800;9.002;2023-05-29T07:20:46;3.60;;;3.17;;
211;SDS011;16228;48.800;9.002;2023-05-29T07:23:13;6.30;;;3.57;;
211;SDS011;16228;48.800;9.002;2023-05-29T07:25:40;5.03;;;3.50;;
211;SDS011;16228;48.800;9.002;2023-05-29T07:28:08;4.07;;;3.63;;
211;SDS011;16228;48.800;9.002;2023-05-29T07:30:36;4.60;;;3.40;;
211;SDS011;16228;48.800;9.002;2023-05-29T07:33:04;4.13;;;3.50;;
211;SDS011;16228;48.800;9.002;2023-05-29T07:35:31;6.13;;;3.50;;
211;SDS011;16228;48.800;9.002;2023-05-29T07:37:59;5.03;;;3.23;;
211;SDS011;16228;48.800;9.002;2023-05-29T07:40:26;3.40;;;2.77;;
211;SDS011;16228;48.800;9.002;2023-05-29T07:42:53;4.57;;;3.30;;
211;SDS011;16228;48.800;9.002;2023-05-29T07:45:20;6.87;;;3.73;;
211;SDS011;16228;48.800;9.002;2023-05-29T07:47:49;4.03;;;3.33;;
211;SDS011;16228;48.800;9.002;2023-05-29T07:50:16;4.17;;;3.20;;
211;SDS011;16228;48.800;9.002;2023-05-29T07:52:43;5.77;;;3.20;;
211;SDS011;16228;48.800;9.002;2023-05-29T07:55:10;3.95;;;3.40;;
211;SDS011;16228;48.800;9.002;2023-05-29T07:57:37;5.25;;;3.70;;
211;SDS011;16228;48.800;9.002;2023-05-29T08:00:06;5.72;;;3.55;;
211;SDS011;16228;48.800;9.002;2023-05-29T08:02:34;5.10;;;3.22;;
211;SDS011;16228;48.800;9.002;2023-05-29T08:05:03;4.72;;;2.95;;
211;SDS011;16228;48.800;9.002;2023-05-29T08:07:30;4.10;;;3.10;;
211;SDS011;16228;48.800;9.002;2023-05-29T08:09:58;3.67;;;3.38;;
211;SDS011;16228;48.800;9.002;2023-05-29T08:12:25;4.88;;;3.35;;
211;SDS011;16228;48.800;9.002;2023-05-29T08:14:53;4.75;;;3.20;;
211;SDS011;16228;48.800;9.002;2023-05-29T08:17:20;3.72;;;2.90;;
211;SDS011;16228;48.800;9.002;2023-05-29T08:19:47;3.92;;;3.53;;
211;SDS011;16228;48.800;9.002;2023-05-29T08:22:16;5.03;;;3.63;;
211;SDS011;16228;48.800;9.002;2023-05-29T08:24:43;4.32;;;3.60;;
211;SDS011;16228;48.800;9.002;2023-05-29T08:27:10;4.85;;;3.55;;
211;SDS011;16228;48.800;9.002;2023-05-29T08:29:38;4.60;;;2.88;;
211;SDS011;16228;48.800;9.002;2023-05-29T08:32:05;4.88;;;3.13;;
211;SDS011;16228;48.800;9.002;2023-05-29T08:34:32;4.72;;;3.45;;
211;SDS011;16228;48.800;9.002;2023-05-29T08:37:00;6.57;;;3.15;;
211;SDS011;16228;48.800;9.002;2023-05-29T08:39:28;5.55;;;3.50;;
211;SDS011;16228;48.800;9.002;2023-05-29T08:41:58;4.68;;;3.17;;
211;SDS011;16228;48.800;9.002;2023-05-29T08:44:29;4.45;;;3.17;;
211;SDS011;16228;48.800;9.002;2023-05-29T08:46:59;5.05;;;4.07;;
211;SDS011;16228;48.800;9.002;2023-05-29T08:49:29;5.18;;;3.53;;
211;SDS011;16228;48.800;9.002;2023-05-29T08:52:09;4.78;;;3.58;;
211;SDS011;16228;48.800;9.002;2023-05-29T08:54:43;3.88;;;3.40;;
211;SDS011;16228;48.800;9.002;2023-05-29T08:57:11;5.18;;;4.07;;
211;SDS011;16228;48.800;9.002;2023-05-29T08:59:39;5.20;;;3.95;;
211;SDS011;16228;48.800;9.002;2023-05-29T09:02:09;4.05;;;3.60;;
211;SDS011;16228;48.800;9.002;2023-05-29T09:04:36;4.10;;;3.28;;
211;SDS011;16228;48.800;9.002;2023-05-29T09:07:04;4.70;;;3.80;;
211;SDS011;16228;48.800;9.002;2023-05-29T09:09:34;4.70;;;3.25;;
211;SDS011;16228;48.800;9.002;2023-05-29T09:12:02;3.78;;;3.22;;
211;SDS011;16228;48.800;9.002;2023-05-29T09:14:34;5.90;;;3.78;;
211;SDS011;16228;48.800;9.002;2023-05-29T09:17:02;6.47;;;3.63;;
211;SDS011;16228;48.800;9.002;2023-05-29T09:19:31;4.57;;;3.78;;
211;SDS011;16228;48.800;9.002;2023-05-29T09:22:02;6.32;;;3.78;;
211;SDS011;16228;48.800;9.002;2023-05-29T09:24:31;5.75;;;3.95;;
211;SDS011;16228;48.800;9.002;2023-05-29T09:27:00;4.22;;;3.30;;
211;SDS011;16228;48.800;9.002;2023-05-29T09:29:31;3.85;;;3.55;;
211;SDS011;16228;48.800;9.002;2023-05-29T09:31:59;4.63;;;3.55;;
211;SDS011;16228;48.800;9.002;2023-05-29T09:34:27;4.80;;;3.70;;
211;SDS011;16228;48.800;9.002;2023-05-29T09:37:00;3.92;;;3.10;;
211;SDS011;16228;48.800;9.002;2023-05-29T09:39:33;3.63;;;3.30;;
211;SDS011;16228;48.800;9.002;2023-05-29T09:42:01;5.32;;;3.55;;
211;SDS011;16228;48.800;9.002;2023-05-29T09:44:32;3.92;;;3.35;;
211;SDS011;16228;48.800;9.002;2023-05-29T09:46:59;4.55;;;3.13;;
211;SDS011;16228;48.800;9.002;2023-05-29T09:49:27;4.38;;;3.70;;
211;SDS011;16228;48.800;9.002;2023-05-29T09:51:54;4.03;;;3.58;;
211;SDS011;16228;48.800;9.002;2023-05-29T09:54:24;7.15;;;4.15;;
211;SDS011;16228;48.800;9.002;2023-05-29T09:56:55;4.82;;;3.53;;
211;SDS011;16228;48.800;9.002;2023-05-29T09:59:26;5.05;;;3.33;;
211;SDS011;16228;48.800;9.002;2023-05-29T10:02:00;5.00;;;3.72;;
211;SDS011;16228;48.800;9.002;2023-05-29T10:04:29;4.63;;;3.90;;
211;SDS011;16228;48.800;9.002;2023-05-29T10:06:57;3.67;;;2.80;;
211;SDS011;16228;48.800;9.002;2023-05-29T10:09:30;4.38;;;3.30;;
211;SDS011;16228;48.800;9.002;2023-05-29T10:12:00;4.45;;;3.85;;
211;SDS011;16228;48.800;9.002;2023-05-29T10:14:32;6.20;;;3.50;;
211;SDS011;16228;48.800;9.002;2023-05-29T10:17:02;3.85;;;3.30;;
211;SDS011;16228;48.800;9.002;2023-05-29T10:19:33;6.95;;;3.63;;
211;SDS011;16228;48.800;9.002;2023-05-29T10:22:04;4.32;;;3.60;;
211;SDS011;16228;48.800;9.002;2023-05-29T10:24:32;5.13;;;3.70;;
211;SDS011;16228;48.800;9.002;2023-05-29T10:27:01;5.10;;;3.60;;
211;SDS011;16228;48.800;9.002;2023-05-29T10:29:29;3.92;;;3.38;;
211;SDS011;16228;48.800;9.002;2023-05-29T10:32:12;4.22;;;3.70;;
211;SDS011;16228;48.800;9.002;2023-05-29T10:34:48;4.40;;;3.10;;
211;SDS011;16228;48.800;9.002;2023-05-29T10:37:26;3.45;;;3.10;;
211;SDS011;16228;48.800;9.002;2023-05-29T10:40:05;5.30;;;3.33;;
211;SDS011;16228;48.800;9.002;2023-05-29T10:42:41;4.40;;;3.28;;
211;SDS011;16228;48.800;9.002;2023-05-29T10:45:10;4.00;;;3.42;;
211;SDS011;16228;48.800;9.002;2023-05-29T10:48:01;3.97;;;3.15;;
211;SDS011;16228;48.800;9.002;2023-05-29T10:51:06;4.03;;;3.63;;
211;SDS011;16228;48.800;9.002;2023-05-29T10:53:34;3.88;;;3.10;;
211;SDS011;16228;48.800;9.002;2023-05-29T10:56:07;6.00;;;4.15;;
211;SDS011;16228;48.800;9.002;2023-05-29T10:58:38;3.45;;;3.08;;
211;SDS011;16228;48.800;9.002;2023-05-29T11:01:05;4.38;;;3.10;;
211;SDS011;16228;48.800;9.002;2023-05-29T11:03:36;4.55;;;3.08;;
211;SDS011;16228;48.800;9.002;2023-05-29T11:06:04;5.50;;;3.45;;
211;SDS011;16228;48.800;9.002;2023-05-29T11:08:33;5.13;;;2.97;;
211;SDS011;16228;48.800;9.002;2023-05-29T11:11:01;3.38;;;3.05;;
211;SDS011;16228;48.800;9.002;2023-05-29T11:13:31;2.95;;;2.65;;
211;SDS011;16228;48.800;9.002;2023-05-29T11:16:12;6.15;;;2.78;;
211;SDS011;16228;48.800;9.002;2023-05-29T11:18:45;4.18;;;3.28;;
211;SDS011;16228;48.800;9.002;2023-05-29T11:24:14;3.90;;;2.88;;
211;SDS011;16228;48.800;9.002;2023-05-29T11:26:49;3.22;;;2.85;;
211;SDS011;16228;48.800;9.002;2023-05-29T11:29:20;3.13;;;2.80;;
211;SDS011;16228;48.800;9.002;2023-05-29T11:31:49;3.65;;;3.05;;
211;SDS011;16228;48.800;9.002;2023-05-29T11:34:23;5.00;;;2.88;;
211;SDS011;16228;48.800;9.002;2023-05-29T11:36:54;4.30;;;2.90;;
211;SDS011;16228;48.800;9.002;2023-05-29T11:39:23;4.28;;;3.05;;
211;SDS011;16228;48.800;9.002;2023-05-29T11:41:51;5.85;;;3.88;;
211;SDS011;16228;48.800;9.002;2023-05-29T11:44:18;4.65;;;3.00;;
211;SDS011;16228;48.800;9.002;2023-05-29T11:46:46;5.25;;;3.03;;
211;SDS011;16228;48.800;9.002;2023-05-29T11:49:13;4.30;;;3.10;;
211;SDS011;16228;48.800;9.002;2023-05-29T11:51:55;6.50;;;2.97;;
211;SDS011;16228;48.800;9.002;2023-05-29T11:54:32;5.13;;;2.80;;
211;SDS011;16228;48.800;9.002;2023-05-29T11:57:00;5.57;;;2.65;;
211;SDS011;16228;48.800;9.002;2023-05-29T11:59:28;3.65;;;3.05;;
211;SDS011;16228;48.800;9.002;2023-05-29T12:01:55;3.28;;;2.97;;
211;SDS011;16228;48.800;9.002;2023-05-29T12:04:22;3.70;;;2.85;;
211;SDS011;16228;48.800;9.002;2023-05-29T12:06:50;3.33;;;2.70;;
211;SDS011;16228;48.800;9.002;2023-05-29T12:09:25;3.50;;;3.05;;
211;SDS011;16228;48.800;9.002;2023-05-29T12:11:53;4.00;;;3.35;;
211;SDS011;16228;48.800;9.002;2023-05-29T12:14:21;4.00;;;2.83;;
211;SDS011;16228;48.800;9.002;2023-05-29T12:16:48;4.28;;;2.88;;
211;SDS011;16228;48.800;9.002;2023-05-29T12:19:15;4.30;;;2.95;;
211;SDS011;16228;48.800;9.002;2023-05-29T12:21:42;4.35;;;3.00;;
211;SDS011;16228;48.800;9.002;2023-05-29T12:24:10;5.40;;;3.03;;
211;SDS011;16228;48.800;9.002;2023-05-29T12:26:38;3.63;;;3.05;;
211;SDS011;16228;48.800;9.002;2023-05-29T12:29:06;4.22;;;3.03;;
211;SDS011;16228;48.800;9.002;2023-05-29T12:31:33;3.47;;;3.17;;
211;SDS011;16228;48.800;9.002;2023-05-29T12:34:01;3.72;;;3.05;;
211;SDS011;16228;48.800;9.002;2023-05-29T12:36:28;3.30;;;3.00;;
211;SDS011;16228;48.800;9.002;2023-05-29T12:38:56;3.60;;;3.30;;
211;SDS011;16228;48.800;9.002;2023-05-29T12:41:26;3.67;;;3.38;;
211;SDS011;16228;48.800;9.002;2023-05-29T12:43:56;4.03;;;3.58;;
211;SDS011;16228;48.800;9.002;2023-05-29T12:46:24;3.20;;;2.90;;
211;SDS011;16228;48.800;9.002;2023-05-29T12:48:52;2.80;;;2.60;;
211;SDS011;16228;48.800;9.002;2023-05-29T12:51:23;3.15;;;2.80;;
211;SDS011;16228;48.800;9.002;2023-05-29T12:53:51;4.18;;;2.95;;
211;SDS011;16228;48.800;9.002;2023-05-29T12:56:20;3.83;;;2.70;;
211;SDS011;16228;48.800;9.002;2023-05-29T12:58:49;3.58;;;3.10;;
211;SDS011;16228;48.800;9.002;2023-05-29T13:01:18;4.10;;;3.20;;
211;SDS011;16228;48.800;9.002;2023-05-29T13:03:45;3.65;;;3.00;;
211;SDS011;16228;48.800;9.002;2023-05-29T13:06:12;6.97;;;2.97;;
211;SDS011;16228;48.800;9.002;2023-05-29T13:08:39;3.30;;;2.80;;
211;SDS011;16228;48.800;9.002;2023-05-29T13:11:07;3.05;;;2.60;;
211;SDS011;16228;48.800;9.002;2023-05-29T13:13:34;4.35;;;2.97;;
211;SDS011;16228;48.800;9.002;2023-05-29T13:16:01;5.00;;;3.38;;
211;SDS011;16228;48.800;9.002;2023-05-29T13:18:29;3.88;;;2.88;;
211;SDS011;16228;48.800;9.002;2023-05-29T13:20:57;3.40;;;3.10;;
211;SDS011;16228;48.800;9.002;2023-05-29T13:23:25;5.13;;;2.92;;
211;SDS011;16228;48.800;9.002;2023-05-29T13:25:52;3.72;;;2.92;;
211;SDS011;16228;48.800;9.002;2023-05-29T13:28:20;3.42;;;2.92;;
211;SDS011;16228;48.800;9.002;2023-05-29T13:30:47;2.97;;;2.67;;
211;SDS011;16228;48.800;9.002;2023-05-29T13:33:14;4.10;;;2.67;;
211;SDS011;16228;48.800;9.002;2023-05-29T13:35:42;2.97;;;2.40;;
211;SDS011;16228;48.800;9.002;2023-05-29T13:38:09;2.83;;;2.60;;
211;SDS011;16228;48.800;9.002;2023-05-29T13:40:37;3.03;;;2.72;;
211;SDS011;16228;48.800;9.002;2023-05-29T13:43:04;3.38;;;2.60;;
211;SDS011;16228;48.800;9.002;2023-05-29T13:45:31;5.05;;;2.92;;
211;SDS011;16228;48.800;9.002;2023-05-29T13:47:58;2.85;;;2.65;;
211;SDS011;16228;48.800;9.002;2023-05-29T13:50:25;2.70;;;2.50;;
211;SDS011;16228;48.800;9.002;2023-05-29T13:52:54;5.32;;;2.95;;
211;SDS011;16228;48.800;9.002;2023-05-29T13:55:21;3.05;;;2.78;;
211;SDS011;16228;48.800;9.002;2023-05-29T13:57:48;4.18;;;3.08;;
211;SDS011;16228;48.800;9.002;2023-05-29T14:00:19;4.10;;;2.70;;
211;SDS011;16228;48.800;9.002;2023-05-29T14:02:46;2.93;;;2.70;;
211;SDS011;16228;48.800;9.002;2023-05-29T14:05:13;4.10;;;3.07;;
211;SDS011;16228;48.800;9.002;2023-05-29T14:07:40;5.20;;;3.30;;
211;SDS011;16228;48.800;9.002;2023-05-29T14:10:09;3.53;;;3.10;;
211;SDS011;16228;48.800;9.002;2023-05-29T14:12:37;4.00;;;2.77;;
211;SDS011;16228;48.800;9.002;2023-05-29T14:15:04;4.00;;;3.20;;
211;SDS011;16228;48.800;9.002;2023-05-29T14:17:32;4.53;;;3.23;;
211;SDS011;16228;48.800;9.002;2023-05-29T14:19:59;3.37;;;2.63;;
211;SDS011;16228;48.800;9.002;2023-05-29T14:22:29;3.97;;;3.10;;
211;SDS011;16228;48.800;9.002;2023-05-29T14:24:57;3.40;;;3.10;;
211;SDS011;16228;48.800;9.002;2023-05-29T14:27:27;5.00;;;3.07;;
211;SDS011;16228;48.800;9.002;2023-05-29T14:29:54;5.10;;;3.13;;
211;SDS011;16228;48.800;9.002;2023-05-29T14:32:21;3.80;;;3.10;;
211;SDS011;16228;48.800;9.002;2023-05-29T14:34:48;3.23;;;2.77;;
211;SDS011;16228;48.800;9.002;2023-05-29T14:37:16;3.23;;;2.83;;
211;SDS011;16228;48.800;9.002;2023-05-29T14:39:43;4.30;;;3.10;;
211;SDS011;16228;48.800;9.002;2023-05-29T14:42:11;3.20;;;2.90;;
211;SDS011;16228;48.800;9.002;2023-05-29T14:44:39;3.10;;;2.90;;
211;SDS011;16228;48.800;9.002;2023-05-29T14:47:06;6.47;;;2.57;;
211;SDS011;16228;48.800;9.002;2023-05-29T14:49:34;2.77;;;2.50;;
211;SDS011;16228;48.800;9.002;2023-05-29T14:52:01;3.20;;;2.73;;
211;SDS011;16228;48.800;9.002;2023-05-29T14:54:29;3.90;;;3.10;;
211;SDS011;16228;48.800;9.002;2023-05-29T14:56:56;3.67;;;2.93;;
211;SDS011;16228;48.800;9.002;2023-05-29T14:59:24;6.50;;;2.90;;
211;SDS011;16228;48.800;9.002;2023-05-29T15:01:52;3.30;;;3.00;;
211;SDS011;16228;48.800;9.002;2023-05-29T15:04:19;3.63;;;3.30;;
211;SDS011;16228;48.800;9.002;2023-05-29T15:06:47;4.00;;;2.67;;
211;SDS011;16228;48.800;9.002;2023-05-29T15:09:14;4.20;;;2.80;;
211;SDS011;16228;48.800;9.002;2023-05-29T15:11:42;4.67;;;2.83;;
211;SDS011;16228;48.800;9.002;2023-05-29T15:14:09;3.20;;;2.73;;
211;SDS011;16228;48.800;9.002;2023-05-29T15:16:36;3.50;;;2.67;;
211;SDS011;16228;48.800;9.002;2023-05-29T15:19:05;3.63;;;3.10;;
211;SDS011;16228;48.800;9.002;2023-05-29T15:21:32;3.30;;;2.73;;